sensor_id;sensor_type;location;lat;lon;timestamp;P1;durP1;ratioP1;P2;durP2;ratioP2
32295;SDS011;18781;51.550;5.418;2024-02-14T00:01:08;5.32;;;2.53;;
32295;SDS011;18781;51.550;5.418;2024-02-14T00:03:34;5.50;;;2.80;;
32295;SDS011;18781;51.550;5.418;2024-02-14T00:06:00;4.45;;;2.95;;
32295;SDS011;18781;51.550;5.418;2024-02-14T00:08:25;4.22;;;2.97;;
32295;SDS011;18781;51.550;5.418;2024-02-14T00:10:51;4.45;;;3.05;;
32295;SDS011;18781;51.550;5.418;2024-02-14T00:13:17;5.32;;;3.15;;
32295;SDS011;18781;51.550;5.418;2024-02-14T00:15:45;4.93;;;3.37;;
32295;SDS011;18781;51.550;5.418;2024-02-14T00:18:11;5.10;;;3.30;;
32295;SDS011;18781;51.550;5.418;2024-02-14T00:20:37;5.45;;;3.17;;
32295;SDS011;18781;51.550;5.418;2024-02-14T00:23:04;5.13;;;3.28;;
32295;SDS011;18781;51.550;5.418;2024-02-14T00:25:30;4.38;;;2.80;;
32295;SDS011;18781;51.550;5.418;2024-02-14T00:27:55;8.77;;;3.10;;
32295;SDS011;18781;51.550;5.418;2024-02-14T00:30:21;7.28;;;3.35;;
32295;SDS011;18781;51.550;5.418;2024-02-14T00:32:48;5.20;;;3.40;;
32295;SDS011;18781;51.550;5.418;2024-02-14T00:35:14;4.90;;;3.03;;
32295;SDS011;18781;51.550;5.418;2024-02-14T00:37:39;6.10;;;3.17;;
32295;SDS011;18781;51.550;5.418;2024-02-14T00:40:05;5.82;;;3.20;;
32295;SDS011;18781;51.550;5.418;2024-02-14T00:42:31;6.85;;;3.45;;
32295;SDS011;18781;51.550;5.418;2024-02-14T00:44:57;6.93;;;3.53;;
32295;SDS011;18781;51.550;5.418;2024-02-14T00:47:23;6.10;;;3.70;;
32295;SDS011;18781;51.550;5.418;2024-02-14T00:49:48;6.10;;;3.40;;
32295;SDS011;18781;51.550;5.418;2024-02-14T00:52:14;9.00;;;4.00;;
32295;SDS011;18781;51.550;5.418;2024-02-14T00:54:41;9.35;;;3.80;;
32295;SDS011;18781;51.550;5.418;2024-02-14T00:57:07;6.55;;;4.10;;
32295;SDS011;18781;51.550;5.418;2024-02-14T00:59:33;11.55;;;4.45;;
32295;SDS011;18781;51.550;5.418;2024-02-14T01:01:58;7.45;;;3.90;;
32295;SDS011;18781;51.550;5.418;2024-02-14T01:04:24;8.48;;;3.85;;
32295;SDS011;18781;51.550;5.418;2024-02-14T01:06:50;9.13;;;3.45;;
32295;SDS011;18781;51.550;5.418;2024-02-14T01:09:16;10.15;;;4.03;;
32295;SDS011;18781;51.550;5.418;2024-02-14T01:11:43;6.55;;;3.30;;
32295;SDS011;18781;51.550;5.418;2024-02-14T01:14:09;9.40;;;4.15;;
32295;SDS011;18781;51.550;5.418;2024-02-14T01:16:41;10.52;;;4.07;;
32295;SDS011;18781;51.550;5.418;2024-02-14T01:19:11;7.45;;;4.07;;
32295;SDS011;18781;51.550;5.418;2024-02-14T01:21:36;9.20;;;4.18;;
32295;SDS011;18781;51.550;5.418;2024-02-14T01:24:02;7.13;;;3.53;;
32295;SDS011;18781;51.550;5.418;2024-02-14T01:26:30;10.45;;;4.45;;
32295;SDS011;18781;51.550;5.418;2024-02-14T01:28:55;6.57;;;4.20;;
32295;SDS011;18781;51.550;5.418;2024-02-14T01:31:21;8.55;;;3.72;;
32295;SDS011;18781;51.550;5.418;2024-02-14T01:33:47;7.90;;;3.80;;
32295;SDS011;18781;51.550;5.418;2024-02-14T01:36:13;6.97;;;3.78;;
32295;SDS011;18781;51.550;5.418;2024-02-14T01:38:38;9.35;;;4.45;;
32295;SDS011;18781;51.550;5.418;2024-02-14T01:41:05;5.88;;;4.18;;
32295;SDS011;18781;51.550;5.418;2024-02-14T01:43:30;7.03;;;3.75;;
32295;SDS011;18781;51.550;5.418;2024-02-14T01:46:03;6.70;;;3.95;;
32295;SDS011;18781;51.550;5.418;2024-02-14T01:48:31;11.95;;;4.28;;
32295;SDS011;18781;51.550;5.418;2024-02-14T01:50:57;9.77;;;4.72;;
32295;SDS011;18781;51.550;5.418;2024-02-14T01:53:24;7.60;;;4.18;;
32295;SDS011;18781;51.550;5.418;2024-02-14T01:55:50;6.65;;;3.83;;
32295;SDS011;18781;51.550;5.418;2024-02-14T01:58:17;7.70;;;4.18;;
32295;SDS011;18781;51.550;5.418;2024-02-14T02:00:43;12.13;;;4.32;;
32295;SDS011;18781;51.550;5.418;2024-02-14T02:03:09;6.97;;;4.00;;
32295;SDS011;18781;51.550;5.418;2024-02-14T02:05:36;9.00;;;3.67;;
32295;SDS011;18781;51.550;5.418;2024-02-14T02:08:01;6.60;;;3.70;;
32295;SDS011;18781;51.550;5.418;2024-02-14T02:10:27;10.70;;;4.18;;
32295;SDS011;18781;51.550;5.418;2024-02-14T02:13:00;5.28;;;3.88;;
32295;SDS011;18781;51.550;5.418;2024-02-14T02:15:26;5.88;;;3.50;;
32295;SDS011;18781;51.550;5.418;2024-02-14T02:17:53;14.82;;;3.80;;
32295;SDS011;18781;51.550;5.418;2024-02-14T02:20:19;9.82;;;4.32;;
32295;SDS011;18781;51.550;5.418;2024-02-14T02:22:46;8.90;;;4.22;;
32295;SDS011;18781;51.550;5.418;2024-02-14T02:27:40;8.23;;;4.15;;
32295;SDS011;18781;51.550;5.418;2024-02-14T02:30:06;6.03;;;3.83;;
32295;SDS011;18781;51.550;5.418;2024-02-14T02:32:33;10.55;;;3.72;;
32295;SDS011;18781;51.550;5.418;2024-02-14T02:34:59;7.47;;;4.13;;
32295;SDS011;18781;51.550;5.418;2024-02-14T02:37:25;9.02;;;3.85;;
32295;SDS011;18781;51.550;5.418;2024-02-14T02:39:53;7.03;;;4.07;;
32295;SDS011;18781;51.550;5.418;2024-02-14T02:42:19;6.75;;;3.92;;
32295;SDS011;18781;51.550;5.418;2024-02-14T02:44:49;8.85;;;4.28;;
32295;SDS011;18781;51.550;5.418;2024-02-14T02:47:15;7.00;;;4.07;;
32295;SDS011;18781;51.550;5.418;2024-02-14T02:49:42;6.38;;;3.85;;
32295;SDS011;18781;51.550;5.418;2024-02-14T02:52:09;5.53;;;3.92;;
32295;SDS011;18781;51.550;5.418;2024-02-14T02:54:35;10.85;;;4.57;;
32295;SDS011;18781;51.550;5.418;2024-02-14T02:57:01;8.05;;;4.13;;
32295;SDS011;18781;51.550;5.418;2024-02-14T02:59:28;8.70;;;4.18;;
32295;SDS011;18781;51.550;5.418;2024-02-14T03:01:54;8.23;;;4.43;;
32295;SDS011;18781;51.550;5.418;2024-02-14T03:04:20;7.32;;;4.30;;
32295;SDS011;18781;51.550;5.418;2024-02-14T03:06:46;6.25;;;4.20;;
32295;SDS011;18781;51.550;5.418;2024-02-14T03:09:13;9.95;;;4.18;;
32295;SDS011;18781;51.550;5.418;2024-02-14T03:11:39;12.50;;;4.97;;
32295;SDS011;18781;51.550;5.418;2024-02-14T03:14:06;11.93;;;4.90;;
32295;SDS011;18781;51.550;5.418;2024-02-14T03:16:32;10.27;;;4.93;;
32295;SDS011;18781;51.550;5.418;2024-02-14T03:18:58;10.90;;;4.55;;
32295;SDS011;18781;51.550;5.418;2024-02-14T03:21:25;11.35;;;5.22;;
32295;SDS011;18781;51.550;5.418;2024-02-14T03:23:52;15.05;;;4.95;;
32295;SDS011;18781;51.550;5.418;2024-02-14T03:26:19;7.65;;;4.22;;
32295;SDS011;18781;51.550;5.418;2024-02-14T03:28:44;7.85;;;4.90;;
32295;SDS011;18781;51.550;5.418;2024-02-14T03:31:10;8.25;;;4.53;;
32295;SDS011;18781;51.550;5.418;2024-02-14T03:33:39;7.38;;;4.47;;
32295;SDS011;18781;51.550;5.418;2024-02-14T03:36:05;10.18;;;5.10;;
32295;SDS011;18781;51.550;5.418;2024-02-14T03:38:30;10.48;;;4.57;;
32295;SDS011;18781;51.550;5.418;2024-02-14T03:40:56;6.75;;;4.43;;
32295;SDS011;18781;51.550;5.418;2024-02-14T03:43:22;12.48;;;5.20;;
32295;SDS011;18781;51.550;5.418;2024-02-14T03:45:49;9.52;;;4.80;;
32295;SDS011;18781;51.550;5.418;2024-02-14T03:48:15;8.50;;;5.03;;
32295;SDS011;18781;51.550;5.418;2024-02-14T03:50:40;9.85;;;5.38;;
32295;SDS011;18781;51.550;5.418;2024-02-14T03:53:08;14.70;;;5.15;;
32295;SDS011;18781;51.550;5.418;2024-02-14T03:55:36;11.05;;;4.78;;
32295;SDS011;18781;51.550;5.418;2024-02-14T03:58:02;8.68;;;4.60;;
32295;SDS011;18781;51.550;5.418;2024-02-14T04:00:28;10.32;;;5.20;;
32295;SDS011;18781;51.550;5.418;2024-02-14T04:02:54;11.82;;;5.25;;
32295;SDS011;18781;51.550;5.418;2024-02-14T04:05:24;10.20;;;5.32;;
32295;SDS011;18781;51.550;5.418;2024-02-14T04:07:50;10.57;;;5.38;;
32295;SDS011;18781;51.550;5.418;2024-02-14T04:10:17;11.02;;;5.10;;
32295;SDS011;18781;51.550;5.418;2024-02-14T04:12:43;11.90;;;5.65;;
32295;SDS011;18781;51.550;5.418;2024-02-14T04:15:09;9.70;;;5.25;;
32295;SDS011;18781;51.550;5.418;2024-02-14T04:17:35;10.68;;;5.50;;
32295;SDS011;18781;51.550;5.418;2024-02-14T04:20:00;9.40;;;4.75;;
32295;SDS011;18781;51.550;5.418;2024-02-14T04:22:26;8.52;;;5.32;;
32295;SDS011;18781;51.550;5.418;2024-02-14T04:24:51;9.32;;;5.00;;
32295;SDS011;18781;51.550;5.418;2024-02-14T04:27:17;8.23;;;4.97;;
32295;SDS011;18781;51.550;5.418;2024-02-14T04:29:46;11.05;;;5.22;;
32295;SDS011;18781;51.550;5.418;2024-02-14T04:32:12;14.30;;;5.10;;
32295;SDS011;18781;51.550;5.418;2024-02-14T04:34:39;13.20;;;4.95;;
32295;SDS011;18781;51.550;5.418;2024-02-14T04:37:05;10.93;;;4.75;;
32295;SDS011;18781;51.550;5.418;2024-02-14T04:39:35;7.47;;;5.05;;
32295;SDS011;18781;51.550;5.418;2024-02-14T04:42:01;10.45;;;5.47;;
32295;SDS011;18781;51.550;5.418;2024-02-14T04:44:30;8.85;;;4.80;;
32295;SDS011;18781;51.550;5.418;2024-02-14T04:49:25;9.27;;;5.38;;
32295;SDS011;18781;51.550;5.418;2024-02-14T04:51:51;8.27;;;5.10;;
32295;SDS011;18781;51.550;5.418;2024-02-14T04:54:17;7.45;;;4.85;;
32295;SDS011;18781;51.550;5.418;2024-02-14T04:56:44;7.43;;;4.50;;
32295;SDS011;18781;51.550;5.418;2024-02-14T04:59:10;10.30;;;4.93;;
32295;SDS011;18781;51.550;5.418;2024-02-14T05:01:36;6.43;;;4.78;;
32295;SDS011;18781;51.550;5.418;2024-02-14T05:04:02;7.60;;;4.88;;
32295;SDS011;18781;51.550;5.418;2024-02-14T05:06:29;8.85;;;5.15;;
32295;SDS011;18781;51.550;5.418;2024-02-14T05:08:54;9.73;;;5.30;;
32295;SDS011;18781;51.550;5.418;2024-02-14T05:11:20;10.88;;;5.43;;
32295;SDS011;18781;51.550;5.418;2024-02-14T05:13:46;9.15;;;5.50;;
32295;SDS011;18781;51.550;5.418;2024-02-14T05:16:12;9.65;;;5.50;;
32295;SDS011;18781;51.550;5.418;2024-02-14T05:18:38;10.05;;;5.10;;
32295;SDS011;18781;51.550;5.418;2024-02-14T05:21:07;11.23;;;6.30;;
32295;SDS011;18781;51.550;5.418;2024-02-14T05:23:35;12.35;;;6.38;;
32295;SDS011;18781;51.550;5.418;2024-02-14T05:26:02;9.57;;;5.57;;
32295;SDS011;18781;51.550;5.418;2024-02-14T05:28:28;8.18;;;5.60;;
32295;SDS011;18781;51.550;5.418;2024-02-14T05:30:54;11.15;;;5.72;;
32295;SDS011;18781;51.550;5.418;2024-02-14T05:33:20;10.68;;;6.30;;
32295;SDS011;18781;51.550;5.418;2024-02-14T05:35:47;6.90;;;5.53;;
32295;SDS011;18781;51.550;5.418;2024-02-14T05:38:14;13.20;;;5.97;;
32295;SDS011;18781;51.550;5.418;2024-02-14T05:40:40;11.57;;;6.45;;
32295;SDS011;18781;51.550;5.418;2024-02-14T05:43:08;12.27;;;6.20;;
32295;SDS011;18781;51.550;5.418;2024-02-14T05:45:33;10.45;;;5.65;;
32295;SDS011;18781;51.550;5.418;2024-02-14T05:47:59;10.00;;;6.05;;
32295;SDS011;18781;51.550;5.418;2024-02-14T05:50:24;11.35;;;6.10;;
32295;SDS011;18781;51.550;5.418;2024-02-14T05:52:50;9.50;;;5.55;;
32295;SDS011;18781;51.550;5.418;2024-02-14T05:55:15;11.68;;;5.40;;
32295;SDS011;18781;51.550;5.418;2024-02-14T05:57:41;8.77;;;5.65;;
32295;SDS011;18781;51.550;5.418;2024-02-14T06:00:07;11.70;;;5.72;;
32295;SDS011;18781;51.550;5.418;2024-02-14T06:02:35;11.43;;;6.03;;
32295;SDS011;18781;51.550;5.418;2024-02-14T06:05:00;7.95;;;5.88;;
32295;SDS011;18781;51.550;5.418;2024-02-14T06:07:26;9.52;;;6.05;;
32295;SDS011;18781;51.550;5.418;2024-02-14T06:09:52;8.70;;;5.75;;
32295;SDS011;18781;51.550;5.418;2024-02-14T06:12:17;9.30;;;5.82;;
32295;SDS011;18781;51.550;5.418;2024-02-14T06:14:43;9.30;;;5.78;;
32295;SDS011;18781;51.550;5.418;2024-02-14T06:17:08;12.98;;;5.95;;
32295;SDS011;18781;51.550;5.418;2024-02-14T06:19:34;8.93;;;5.93;;
32295;SDS011;18781;51.550;5.418;2024-02-14T06:22:01;8.77;;;6.35;;
32295;SDS011;18781;51.550;5.418;2024-02-14T06:24:26;7.97;;;6.22;;
32295;SDS011;18781;51.550;5.418;2024-02-14T06:26:52;11.52;;;6.88;;
32295;SDS011;18781;51.550;5.418;2024-02-14T06:29:18;12.82;;;6.93;;
32295;SDS011;18781;51.550;5.418;2024-02-14T06:31:43;11.40;;;6.93;;
32295;SDS011;18781;51.550;5.418;2024-02-14T06:34:09;11.13;;;6.80;;
32295;SDS011;18781;51.550;5.418;2024-02-14T06:36:35;15.30;;;7.35;;
32295;SDS011;18781;51.550;5.418;2024-02-14T06:39:01;12.00;;;6.95;;
32295;SDS011;18781;51.550;5.418;2024-02-14T06:41:26;12.35;;;7.40;;
32295;SDS011;18781;51.550;5.418;2024-02-14T06:43:52;13.40;;;7.45;;
32295;SDS011;18781;51.550;5.418;2024-02-14T06:46:18;11.68;;;7.13;;
32295;SDS011;18781;51.550;5.418;2024-02-14T06:48:43;12.27;;;7.80;;
32295;SDS011;18781;51.550;5.418;2024-02-14T06:51:09;13.82;;;6.63;;
32295;SDS011;18781;51.550;5.418;2024-02-14T06:53:35;11.75;;;7.40;;
32295;SDS011;18781;51.550;5.418;2024-02-14T06:56:00;14.20;;;7.63;;
32295;SDS011;18781;51.550;5.418;2024-02-14T06:58:26;14.20;;;8.05;;
32295;SDS011;18781;51.550;5.418;2024-02-14T07:00:52;16.70;;;7.80;;
32295;SDS011;18781;51.550;5.418;2024-02-14T07:03:17;13.88;;;7.57;;
32295;SDS011;18781;51.550;5.418;2024-02-14T07:05:43;16.23;;;7.93;;
32295;SDS011;18781;51.550;5.418;2024-02-14T07:08:08;14.40;;;7.60;;
32295;SDS011;18781;51.550;5.418;2024-02-14T07:10:34;18.45;;;8.80;;
32295;SDS011;18781;51.550;5.418;2024-02-14T07:13:00;13.05;;;7.70;;
32295;SDS011;18781;51.550;5.418;2024-02-14T07:15:25;13.32;;;7.28;;
32295;SDS011;18781;51.550;5.418;2024-02-14T07:17:53;12.73;;;7.22;;
32295;SDS011;18781;51.550;5.418;2024-02-14T07:20:20;20.20;;;9.05;;
32295;SDS011;18781;51.550;5.418;2024-02-14T07:22:46;14.32;;;7.25;;
32295;SDS011;18781;51.550;5.418;2024-02-14T07:25:18;11.93;;;7.95;;
32295;SDS011;18781;51.550;5.418;2024-02-14T07:27:44;12.70;;;7.53;;
32295;SDS011;18781;51.550;5.418;2024-02-14T07:30:11;14.57;;;8.00;;
32295;SDS011;18781;51.550;5.418;2024-02-14T07:32:37;17.00;;;7.22;;
32295;SDS011;18781;51.550;5.418;2024-02-14T07:35:03;13.18;;;7.90;;
32295;SDS011;18781;51.550;5.418;2024-02-14T07:37:30;16.33;;;8.20;;
32295;SDS011;18781;51.550;5.418;2024-02-14T07:39:55;16.63;;;8.48;;
32295;SDS011;18781;51.550;5.418;2024-02-14T07:42:21;14.18;;;8.30;;
32295;SDS011;18781;51.550;5.418;2024-02-14T07:44:47;15.38;;;8.75;;
32295;SDS011;18781;51.550;5.418;2024-02-14T07:47:12;14.73;;;8.82;;
32295;SDS011;18781;51.550;5.418;2024-02-14T07:49:39;17.27;;;8.90;;
32295;SDS011;18781;51.550;5.418;2024-02-14T07:52:06;18.85;;;8.63;;
32295;SDS011;18781;51.550;5.418;2024-02-14T07:54:31;17.38;;;8.88;;
32295;SDS011;18781;51.550;5.418;2024-02-14T07:56:57;15.18;;;8.43;;
32295;SDS011;18781;51.550;5.418;2024-02-14T07:59:23;17.33;;;9.07;;
32295;SDS011;18781;51.550;5.418;2024-02-14T08:01:49;19.15;;;8.85;;
32295;SDS011;18781;51.550;5.418;2024-02-14T08:04:14;27.10;;;9.07;;
32295;SDS011;18781;51.550;5.418;2024-02-14T08:06:40;21.58;;;9.32;;
32295;SDS011;18781;51.550;5.418;2024-02-14T08:09:06;17.23;;;9.18;;
32295;SDS011;18781;51.550;5.418;2024-02-14T08:11:34;17.45;;;8.73;;
32295;SDS011;18781;51.550;5.418;2024-02-14T08:14:00;15.38;;;8.80;;
32295;SDS011;18781;51.550;5.418;2024-02-14T08:16:27;19.70;;;8.20;;
32295;SDS011;18781;51.550;5.418;2024-02-14T08:18:52;23.42;;;8.80;;
32295;SDS011;18781;51.550;5.418;2024-02-14T08:21:24;15.05;;;8.50;;
32295;SDS011;18781;51.550;5.418;2024-02-14T08:23:53;18.85;;;8.27;;
32295;SDS011;18781;51.550;5.418;2024-02-14T08:26:19;24.05;;;8.75;;
32295;SDS011;18781;51.550;5.418;2024-02-14T08:28:47;20.75;;;8.90;;
32295;SDS011;18781;51.550;5.418;2024-02-14T08:31:13;18.50;;;9.20;;
32295;SDS011;18781;51.550;5.418;2024-02-14T08:33:39;18.83;;;8.77;;
32295;SDS011;18781;51.550;5.418;2024-02-14T08:36:05;18.52;;;8.23;;
32295;SDS011;18781;51.550;5.418;2024-02-14T08:38:31;15.57;;;8.45;;
32295;SDS011;18781;51.550;5.418;2024-02-14T08:41:00;20.83;;;9.37;;
32295;SDS011;18781;51.550;5.418;2024-02-14T08:43:27;16.65;;;8.43;;
32295;SDS011;18781;51.550;5.418;2024-02-14T08:45:56;17.35;;;8.75;;
32295;SDS011;18781;51.550;5.418;2024-02-14T08:48:22;21.90;;;8.48;;
32295;SDS011;18781;51.550;5.418;2024-02-14T08:50:48;18.10;;;8.13;;
32295;SDS011;18781;51.550;5.418;2024-02-14T08:53:14;23.90;;;8.50;;
32295;SDS011;18781;51.550;5.418;2024-02-14T08:55:40;16.10;;;8.18;;
32295;SDS011;18781;51.550;5.418;2024-02-14T08:58:06;15.07;;;8.48;;
32295;SDS011;18781;51.550;5.418;2024-02-14T09:00:34;16.30;;;7.40;;
32295;SDS011;18781;51.550;5.418;2024-02-14T09:05:29;17.42;;;7.95;;
32295;SDS011;18781;51.550;5.418;2024-02-14T09:07:55;24.02;;;8.50;;
32295;SDS011;18781;51.550;5.418;2024-02-14T09:10:21;19.83;;;7.78;;
32295;SDS011;18781;51.550;5.418;2024-02-14T09:12:47;14.60;;;8.23;;
32295;SDS011;18781;51.550;5.418;2024-02-14T09:15:12;13.63;;;7.75;;
32295;SDS011;18781;51.550;5.418;2024-02-14T09:17:38;20.88;;;7.93;;
32295;SDS011;18781;51.550;5.418;2024-02-14T09:20:06;17.25;;;7.70;;
32295;SDS011;18781;51.550;5.418;2024-02-14T09:22:37;20.03;;;8.47;;
32295;SDS011;18781;51.550;5.418;2024-02-14T09:25:03;15.50;;;7.50;;
32295;SDS011;18781;51.550;5.418;2024-02-14T09:27:29;18.95;;;7.60;;
32295;SDS011;18781;51.550;5.418;2024-02-14T09:29:55;16.63;;;7.28;;
32295;SDS011;18781;51.550;5.418;2024-02-14T09:32:21;18.10;;;7.85;;
32295;SDS011;18781;51.550;5.418;2024-02-14T09:34:46;15.15;;;7.78;;
32295;SDS011;18781;51.550;5.418;2024-02-14T09:37:12;17.13;;;8.07;;
32295;SDS011;18781;51.550;5.418;2024-02-14T09:39:38;16.10;;;7.30;;
32295;SDS011;18781;51.550;5.418;2024-02-14T09:42:07;18.25;;;7.70;;
32295;SDS011;18781;51.550;5.418;2024-02-14T09:44:36;16.17;;;7.97;;
32295;SDS011;18781;51.550;5.418;2024-02-14T09:47:04;16.83;;;7.68;;
32295;SDS011;18781;51.550;5.418;2024-02-14T09:49:31;20.08;;;8.35;;
32295;SDS011;18781;51.550;5.418;2024-02-14T09:52:01;19.10;;;8.32;;
32295;SDS011;18781;51.550;5.418;2024-02-14T09:54:28;14.82;;;7.72;;
32295;SDS011;18781;51.550;5.418;2024-02-14T09:56:56;14.05;;;7.90;;
32295;SDS011;18781;51.550;5.418;2024-02-14T09:59:23;14.43;;;7.68;;
32295;SDS011;18781;51.550;5.418;2024-02-14T10:01:49;16.88;;;8.02;;
32295;SDS011;18781;51.550;5.418;2024-02-14T10:04:16;17.50;;;8.02;;
32295;SDS011;18781;51.550;5.418;2024-02-14T10:06:44;17.63;;;7.60;;
32295;SDS011;18781;51.550;5.418;2024-02-14T10:09:10;15.98;;;7.95;;
32295;SDS011;18781;51.550;5.418;2024-02-14T10:11:35;12.48;;;7.28;;
32295;SDS011;18781;51.550;5.418;2024-02-14T10:14:02;17.85;;;7.57;;
32295;SDS011;18781;51.550;5.418;2024-02-14T10:16:34;17.60;;;8.40;;
32295;SDS011;18781;51.550;5.418;2024-02-14T10:19:00;14.32;;;7.60;;
32295;SDS011;18781;51.550;5.418;2024-02-14T10:21:26;15.13;;;7.03;;
32295;SDS011;18781;51.550;5.418;2024-02-14T10:23:53;14.57;;;7.13;;
32295;SDS011;18781;51.550;5.418;2024-02-14T10:26:22;15.65;;;7.95;;
32295;SDS011;18781;51.550;5.418;2024-02-14T10:28:48;21.27;;;8.38;;
32295;SDS011;18781;51.550;5.418;2024-02-14T10:31:15;17.38;;;7.40;;
32295;SDS011;18781;51.550;5.418;2024-02-14T10:33:41;13.57;;;7.47;;
32295;SDS011;18781;51.550;5.418;2024-02-14T10:36:07;15.30;;;7.05;;
32295;SDS011;18781;51.550;5.418;2024-02-14T10:38:34;13.55;;;7.18;;
32295;SDS011;18781;51.550;5.418;2024-02-14T10:41:00;17.25;;;8.13;;
32295;SDS011;18781;51.550;5.418;2024-02-14T10:43:27;12.93;;;7.32;;
32295;SDS011;18781;51.550;5.418;2024-02-14T10:45:56;16.70;;;7.53;;
32295;SDS011;18781;51.550;5.418;2024-02-14T10:48:23;11.45;;;7.63;;
32295;SDS011;18781;51.550;5.418;2024-02-14T10:50:51;13.95;;;7.57;;
32295;SDS011;18781;51.550;5.418;2024-02-14T10:53:19;12.50;;;7.17;;
32295;SDS011;18781;51.550;5.418;2024-02-14T10:55:48;15.02;;;7.18;;
32295;SDS011;18781;51.550;5.418;2024-02-14T10:58:17;12.88;;;6.93;;
32295;SDS011;18781;51.550;5.418;2024-02-14T11:00:44;10.80;;;7.05;;
32295;SDS011;18781;51.550;5.418;2024-02-14T11:03:11;15.05;;;7.32;;
32295;SDS011;18781;51.550;5.418;2024-02-14T11:05:46;15.95;;;7.22;;
32295;SDS011;18781;51.550;5.418;2024-02-14T11:08:13;11.10;;;6.47;;
32295;SDS011;18781;51.550;5.418;2024-02-14T11:10:40;9.60;;;6.57;;
32295;SDS011;18781;51.550;5.418;2024-02-14T11:13:09;9.73;;;6.30;;
32295;SDS011;18781;51.550;5.418;2024-02-14T11:15:39;12.05;;;6.88;;
32295;SDS011;18781;51.550;5.418;2024-02-14T11:18:05;9.95;;;5.80;;
32295;SDS011;18781;51.550;5.418;2024-02-14T11:20:35;7.95;;;5.72;;
32295;SDS011;18781;51.550;5.418;2024-02-14T11:23:02;10.68;;;5.72;;
32295;SDS011;18781;51.550;5.418;2024-02-14T11:25:34;7.03;;;4.85;;
32295;SDS011;18781;51.550;5.418;2024-02-14T11:28:00;6.60;;;4.45;;
32295;SDS011;18781;51.550;5.418;2024-02-14T11:30:39;6.78;;;4.40;;
32295;SDS011;18781;51.550;5.418;2024-02-14T11:33:15;4.93;;;4.18;;
32295;SDS011;18781;51.550;5.418;2024-02-14T11:35:45;6.38;;;4.40;;
32295;SDS011;18781;51.550;5.418;2024-02-14T11:38:13;6.38;;;4.35;;
32295;SDS011;18781;51.550;5.418;2024-02-14T11:40:39;6.72;;;4.68;;
32295;SDS011;18781;51.550;5.418;2024-02-14T11:43:18;6.80;;;4.70;;
32295;SDS011;18781;51.550;5.418;2024-02-14T11:45:45;8.95;;;4.97;;
32295;SDS011;18781;51.550;5.418;2024-02-14T11:50:41;6.07;;;4.45;;
32295;SDS011;18781;51.550;5.418;2024-02-14T11:53:12;10.65;;;5.22;;
32295;SDS011;18781;51.550;5.418;2024-02-14T11:55:41;9.55;;;5.80;;
32295;SDS011;18781;51.550;5.418;2024-02-14T11:58:07;7.70;;;5.63;;
32295;SDS011;18781;51.550;5.418;2024-02-14T12:00:34;8.48;;;5.43;;
32295;SDS011;18781;51.550;5.418;2024-02-14T12:03:03;7.78;;;5.72;;
32295;SDS011;18781;51.550;5.418;2024-02-14T12:07:58;9.70;;;5.70;;
32295;SDS011;18781;51.550;5.418;2024-02-14T12:10:24;8.27;;;6.25;;
32295;SDS011;18781;51.550;5.418;2024-02-14T12:12:50;9.95;;;5.57;;
32295;SDS011;18781;51.550;5.418;2024-02-14T12:15:16;7.80;;;5.32;;
32295;SDS011;18781;51.550;5.418;2024-02-14T12:17:42;7.07;;;5.30;;
32295;SDS011;18781;51.550;5.418;2024-02-14T12:20:09;13.15;;;5.78;;
32295;SDS011;18781;51.550;5.418;2024-02-14T12:22:38;10.10;;;6.15;;
32295;SDS011;18781;51.550;5.418;2024-02-14T12:25:05;8.00;;;5.70;;
32295;SDS011;18781;51.550;5.418;2024-02-14T12:27:33;6.90;;;5.38;;
32295;SDS011;18781;51.550;5.418;2024-02-14T12:29:59;9.00;;;5.78;;
32295;SDS011;18781;51.550;5.418;2024-02-14T12:34:55;6.10;;;5.20;;
32295;SDS011;18781;51.550;5.418;2024-02-14T12:37:22;8.75;;;5.07;;
32295;SDS011;18781;51.550;5.418;2024-02-14T12:39:48;5.85;;;5.25;;
32295;SDS011;18781;51.550;5.418;2024-02-14T12:42:14;8.18;;;5.22;;
32295;SDS011;18781;51.550;5.418;2024-02-14T12:44:40;6.43;;;5.07;;
32295;SDS011;18781;51.550;5.418;2024-02-14T12:47:06;7.32;;;4.68;;
32295;SDS011;18781;51.550;5.418;2024-02-14T12:49:33;10.35;;;4.80;;
32295;SDS011;18781;51.550;5.418;2024-02-14T12:51:59;7.20;;;4.20;;
32295;SDS011;18781;51.550;5.418;2024-02-14T12:54:24;5.32;;;3.85;;
32295;SDS011;18781;51.550;5.418;2024-02-14T12:56:51;5.55;;;3.90;;
32295;SDS011;18781;51.550;5.418;2024-02-14T12:59:17;7.57;;;3.50;;
32295;SDS011;18781;51.550;5.418;2024-02-14T13:01:43;5.47;;;3.35;;
32295;SDS011;18781;51.550;5.418;2024-02-14T13:04:09;5.95;;;3.30;;
32295;SDS011;18781;51.550;5.418;2024-02-14T13:06:35;6.18;;;3.05;;
32295;SDS011;18781;51.550;5.418;2024-02-14T13:09:02;5.05;;;3.10;;
32295;SDS011;18781;51.550;5.418;2024-02-14T13:11:31;4.93;;;3.20;;
32295;SDS011;18781;51.550;5.418;2024-02-14T13:13:57;4.13;;;3.10;;
32295;SDS011;18781;51.550;5.418;2024-02-14T13:16:23;6.68;;;3.15;;
32295;SDS011;18781;51.550;5.418;2024-02-14T13:18:49;4.00;;;3.00;;
32295;SDS011;18781;51.550;5.418;2024-02-14T13:21:15;6.93;;;3.10;;
32295;SDS011;18781;51.550;5.418;2024-02-14T13:23:41;7.20;;;2.97;;
32295;SDS011;18781;51.550;5.418;2024-02-14T13:26:07;4.63;;;3.10;;
32295;SDS011;18781;51.550;5.418;2024-02-14T13:28:33;4.10;;;2.90;;
32295;SDS011;18781;51.550;5.418;2024-02-14T13:30:59;4.28;;;3.10;;
32295;SDS011;18781;51.550;5.418;2024-02-14T13:33:24;4.72;;;3.30;;
32295;SDS011;18781;51.550;5.418;2024-02-14T13:35:50;3.45;;;3.13;;
32295;SDS011;18781;51.550;5.418;2024-02-14T13:38:16;4.25;;;3.33;;
32295;SDS011;18781;51.550;5.418;2024-02-14T13:40:42;4.80;;;3.33;;
32295;SDS011;18781;51.550;5.418;2024-02-14T13:43:08;5.28;;;3.40;;
32295;SDS011;18781;51.550;5.418;2024-02-14T13:45:42;4.05;;;3.28;;
32295;SDS011;18781;51.550;5.418;2024-02-14T13:48:09;4.78;;;3.70;;
32295;SDS011;18781;51.550;5.418;2024-02-14T13:50:35;5.95;;;4.13;;
32295;SDS011;18781;51.550;5.418;2024-02-14T13:53:01;8.48;;;4.32;;
32295;SDS011;18781;51.550;5.418;2024-02-14T13:55:28;7.57;;;3.58;;
32295;SDS011;18781;51.550;5.418;2024-02-14T13:57:53;3.65;;;3.28;;
32295;SDS011;18781;51.550;5.418;2024-02-14T14:00:19;3.70;;;3.22;;
32295;SDS011;18781;51.550;5.418;2024-02-14T14:02:45;8.70;;;3.92;;
32295;SDS011;18781;51.550;5.418;2024-02-14T14:05:11;4.97;;;3.50;;
32295;SDS011;18781;51.550;5.418;2024-02-14T14:07:40;4.95;;;3.92;;
32295;SDS011;18781;51.550;5.418;2024-02-14T14:12:32;5.07;;;3.75;;
32295;SDS011;18781;51.550;5.418;2024-02-14T14:14:58;4.90;;;3.55;;
32295;SDS011;18781;51.550;5.418;2024-02-14T14:17:26;7.95;;;4.20;;
32295;SDS011;18781;51.550;5.418;2024-02-14T14:19:52;8.90;;;4.40;;
32295;SDS011;18781;51.550;5.418;2024-02-14T14:22:19;5.72;;;4.25;;
32295;SDS011;18781;51.550;5.418;2024-02-14T14:24:44;5.30;;;4.20;;
32295;SDS011;18781;51.550;5.418;2024-02-14T14:27:10;5.75;;;4.35;;
32295;SDS011;18781;51.550;5.418;2024-02-14T14:29:39;4.85;;;4.25;;
32295;SDS011;18781;51.550;5.418;2024-02-14T14:32:09;5.97;;;4.35;;
32295;SDS011;18781;51.550;5.418;2024-02-14T14:34:34;6.55;;;4.30;;
32295;SDS011;18781;51.550;5.418;2024-02-14T14:37:00;7.18;;;4.32;;
32295;SDS011;18781;51.550;5.418;2024-02-14T14:39:26;8.75;;;4.38;;
32295;SDS011;18781;51.550;5.418;2024-02-14T14:41:52;6.68;;;4.50;;
32295;SDS011;18781;51.550;5.418;2024-02-14T14:44:23;4.00;;;3.42;;
32295;SDS011;18781;51.550;5.418;2024-02-14T14:46:49;5.00;;;3.60;;
32295;SDS011;18781;51.550;5.418;2024-02-14T14:49:15;7.45;;;3.80;;
32295;SDS011;18781;51.550;5.418;2024-02-14T14:51:41;5.13;;;3.58;;
32295;SDS011;18781;51.550;5.418;2024-02-14T14:54:07;4.82;;;3.35;;